Seabulk Arctic — WCY7054 — position and weather

sailwx.info

Track history (hours):
 
Tides and Currents Weather Stations Pressure Air Temp Water Temp Dewpoint Dewpoint Depression Visibility Wind Speed Wind Dir Waves Ship Positions

Seabulk Arctic

Owner: LIGHTSHIP TANKERS IV LLC, FORT LAUDERDALE, FL. More information available from US FCC via Universal Licensing System and Coast Guard Vessel Documentation Center.

Last reported at 2016-Sep-22 12:30 UTC. Time now 2016-Sep-25 15:41 UTC.
Position N 25°24' W 080°01'.

Type: Tanker. MMSI: 366826000.

Date/timePositionNaut miles runAvg speedWind from/ knotsBaromVisibWave heightAir tempDewpointWater temp
2016-Sep-22 12:30N 25°24' W 080°01'8610.9
2016-Sep-22 04:33N 26°50' W 079°55'1211.9
2016-Sep-22 03:33N 27°02' W 079°55'  
2016-Sep-19 16:04N 38°60' W 075°08'1912.7
2016-Sep-19 14:33N 39°16' W 075°21'1313.1
2016-Sep-19 13:33N 39°26' W 075°32'1312.9
2016-Sep-19 12:33N 39°39' W 075°34'1211.9
2016-Sep-19 11:33N 39°48' W 075°25'0 0.2
2016-Sep-19 09:32N 39°49' W 075°24'0 0.0
2016-Sep-19 07:32N 39°49' W 075°24'0 0.0
2016-Sep-19 06:32N 39°49' W 075°24'0 0.0
2016-Sep-19 03:32N 39°49' W 075°24'0 0.0
2016-Sep-19 02:32N 39°49' W 075°24'0 0.0
2016-Sep-19 00:28N 39°49' W 075°24'0 0.0
2016-Sep-18 19:32N 39°49' W 075°24'0 0.0
2016-Sep-18 15:32N 39°49' W 075°24'0 0.0
2016-Sep-18 14:32N 39°49' W 075°24'0 0.1
2016-Sep-18 10:29N 39°49' W 075°24'0 0.0
2016-Sep-18 09:33N 39°49' W 075°24'0 0.0
2016-Sep-18 02:33N 39°49' W 075°24'0 0.2
2016-Sep-18 01:33N 39°49' W 075°24'0 0.0
2016-Sep-18 00:33N 39°49' W 075°24'0 0.0
2016-Sep-17 22:33N 39°49' W 075°24'0 0.0
2016-Sep-17 21:32N 39°48' W 075°24'0 0.0
2016-Sep-17 20:31N 39°49' W 075°24'0 0.2
2016-Sep-17 19:16N 39°49' W 075°24'49 8.6
2016-Sep-17 13:33N 39°01' W 075°09'1313.3
2016-Sep-17 12:33N 38°48' W 075°03'15 7.6
2016-Sep-17 10:33N 38°37' W 074°50'6 6.0
2016-Sep-17 09:33N 38°33' W 074°45'6 5.7
2016-Sep-17 08:33N 38°28' W 074°41'9 8.6
2016-Sep-17 07:33N 38°19' W 074°41'19 9.5
2016-Sep-17 05:32N 38°00' W 074°44'12010.4
2016-Sep-16 18:00N 36°00' W 074°54'59513.7 010 / 131020.510.8 1.032.0
2016-Sep-14 22:33N 26°58' W 079°44'1818.2
2016-Sep-14 21:33N 26°40' W 079°45'7318.3
2016-Sep-14 17:33N 25°28' W 079°56'  
Track history (hours):
 
Tides and Currents Weather Stations Pressure Air Temp Water Temp Dewpoint Dewpoint Depression Visibility Wind Speed Wind Dir Waves Ship Positions

Seabulk Arctic

Owner: LIGHTSHIP TANKERS IV LLC, FORT LAUDERDALE, FL. More information available from US FCC via Universal Licensing System and Coast Guard Vessel Documentation Center.

Last reported at 2016-Sep-22 12:30 UTC. Time now 2016-Sep-25 15:41 UTC.
Position N 25°24' W 080°01'.

Type: Tanker. MMSI: 366826000.

Date/timePositionNaut miles runAvg speedWind from/ knotsBaromVisibWave heightAir tempDewpointWater temp
2016-Sep-22 12:30N 25°24' W 080°01'8610.9
2016-Sep-22 04:33N 26°50' W 079°55'1211.9
2016-Sep-22 03:33N 27°02' W 079°55'  
2016-Sep-19 16:04N 38°60' W 075°08'1912.7
2016-Sep-19 14:33N 39°16' W 075°21'1313.1
2016-Sep-19 13:33N 39°26' W 075°32'1312.9
2016-Sep-19 12:33N 39°39' W 075°34'1211.9
2016-Sep-19 11:33N 39°48' W 075°25'0 0.2
2016-Sep-19 09:32N 39°49' W 075°24'0 0.0
2016-Sep-19 07:32N 39°49' W 075°24'0 0.0
2016-Sep-19 06:32N 39°49' W 075°24'0 0.0
2016-Sep-19 03:32N 39°49' W 075°24'0 0.0
2016-Sep-19 02:32N 39°49' W 075°24'0 0.0
2016-Sep-19 00:28N 39°49' W 075°24'0 0.0
2016-Sep-18 19:32N 39°49' W 075°24'0 0.0
2016-Sep-18 15:32N 39°49' W 075°24'0 0.0
2016-Sep-18 14:32N 39°49' W 075°24'0 0.1
2016-Sep-18 10:29N 39°49' W 075°24'0 0.0
2016-Sep-18 09:33N 39°49' W 075°24'0 0.0
2016-Sep-18 02:33N 39°49' W 075°24'0 0.2
2016-Sep-18 01:33N 39°49' W 075°24'0 0.0
2016-Sep-18 00:33N 39°49' W 075°24'0 0.0
2016-Sep-17 22:33N 39°49' W 075°24'0 0.0
2016-Sep-17 21:32N 39°48' W 075°24'0 0.0
2016-Sep-17 20:31N 39°49' W 075°24'0 0.2
2016-Sep-17 19:16N 39°49' W 075°24'49 8.6
2016-Sep-17 13:33N 39°01' W 075°09'1313.3
2016-Sep-17 12:33N 38°48' W 075°03'15 7.6
2016-Sep-17 10:33N 38°37' W 074°50'6 6.0
2016-Sep-17 09:33N 38°33' W 074°45'6 5.7
2016-Sep-17 08:33N 38°28' W 074°41'9 8.6
2016-Sep-17 07:33N 38°19' W 074°41'19 9.5
2016-Sep-17 05:32N 38°00' W 074°44'12010.4
2016-Sep-16 18:00N 36°00' W 074°54'59513.7 010 / 131020.510.8 1.032.0
2016-Sep-14 22:33N 26°58' W 079°44'1818.2
2016-Sep-14 21:33N 26°40' W 079°45'7318.3
2016-Sep-14 17:33N 25°28' W 079°56'  

Dump ship's entire track history